Time;durP1;ratioP1;P1;durP2;ratioP2;P2;SDS_P1;SDS_P2;PMS_P1;PMS_P2;Temp;Humidity;BMP_temperature;BMP_pressure;BME280_temperature;BME280_humidity;BME280_pressure;Samples;Min_cycle;Max_cycle;Signal;HPM_P1;HPM_P2
2022/08/30 00:01:25;;;;;;;12.63;11.53;;;16.80;99.90;;;;;;4973906;28;20286;-76
2022/08/30 00:03:53;;;;;;;13.47;12.20;;;16.80;99.90;;;;;;4975721;28;20618;-77
2022/08/30 00:06:21;;;;;;;11.93;10.97;;;16.80;99.90;;;;;;4975953;28;20866;-76
2022/08/30 00:08:49;;;;;;;12.50;11.50;;;16.70;99.90;;;;;;4974685;28;20256;-76
2022/08/30 00:11:20;;;;;;;12.70;11.60;;;16.70;99.90;;;;;;4975922;28;20699;-77
2022/08/30 00:13:50;;;;;;;13.00;11.80;;;16.70;99.90;;;;;;4975598;28;20220;-77
2022/08/30 00:16:19;;;;;;;11.57;10.47;;;16.70;99.90;;;;;;4975660;28;20655;-77
2022/08/30 00:18:46;;;;;;;12.33;11.20;;;16.60;99.90;;;;;;4975865;28;20265;-76
2022/08/30 00:21:13;;;;;;;12.10;11.10;;;16.60;99.90;;;;;;4968332;28;20217;-76
2022/08/30 00:23:40;;;;;;;13.43;12.23;;;16.60;99.90;;;;;;4974143;28;20213;-76
2022/08/30 00:26:08;;;;;;;12.70;11.50;;;16.50;99.90;;;;;;4975442;28;20675;-77
2022/08/30 00:28:35;;;;;;;13.57;12.33;;;16.50;99.90;;;;;;4975621;28;20206;-78
2022/08/30 00:31:02;;;;;;;12.10;11.20;;;16.50;99.90;;;;;;4975316;28;20253;-78
2022/08/30 00:33:30;;;;;;;12.63;11.43;;;16.50;99.90;;;;;;4975375;28;20210;-77
2022/08/30 00:35:57;;;;;;;13.17;12.07;;;16.50;99.90;;;;;;4975467;28;20249;-78
2022/08/30 00:38:24;;;;;;;12.37;11.40;;;16.40;99.90;;;;;;4975257;28;20194;-77
2022/08/30 00:40:51;;;;;;;13.53;12.23;;;16.40;99.90;;;;;;4974085;28;20720;-76
2022/08/30 00:43:22;;;;;;;12.23;11.23;;;16.40;99.90;;;;;;4969264;28;20202;-78
2022/08/30 00:45:50;;;;;;;13.23;12.13;;;16.30;99.90;;;;;;4975232;28;20206;-77
2022/08/30 00:48:17;;;;;;;12.53;11.50;;;16.30;99.90;;;;;;4975311;28;20733;-78
2022/08/30 00:50:48;;;;;;;12.97;11.90;;;16.30;99.90;;;;;;4975179;28;20229;-76
2022/08/30 00:53:19;;;;;;;12.77;11.67;;;16.20;99.90;;;;;;4967791;28;20216;-77
2022/08/30 00:55:47;;;;;;;12.97;11.77;;;16.20;99.90;;;;;;4975146;28;20206;-77
2022/08/30 00:58:20;;;;;;;12.57;11.53;;;16.20;99.90;;;;;;4974951;28;20201;-76
2022/08/30 01:00:47;;;;;;;11.93;10.93;;;16.20;99.90;;;;;;4973703;28;20226;-77
2022/08/30 01:03:14;;;;;;;14.50;13.27;;;16.20;99.90;;;;;;4974133;28;20205;-76
2022/08/30 01:05:41;;;;;;;13.80;12.50;;;16.20;99.90;;;;;;4966447;28;20213;-77
2022/08/30 01:08:10;;;;;;;13.20;12.13;;;16.20;99.90;;;;;;4974762;28;20281;-78
2022/08/30 01:10:37;;;;;;;12.87;11.67;;;16.20;99.90;;;;;;4974558;28;20272;-76
2022/08/30 01:13:04;;;;;;;12.50;11.50;;;16.10;99.90;;;;;;4974383;28;20214;-78
2022/08/30 01:15:33;;;;;;;11.97;10.97;;;16.10;99.90;;;;;;4974781;28;20208;-77
2022/08/30 01:18:02;;;;;;;12.40;11.40;;;16.10;99.90;;;;;;4973451;28;20201;-75
2022/08/30 01:20:33;;;;;;;12.53;11.43;;;16.00;99.90;;;;;;4973337;28;20739;-78
2022/08/30 01:23:11;;;;;;;15.70;12.90;;;16.00;99.90;;;;;;4969082;28;20217;-77
2022/08/30 01:25:41;;;;;;;13.17;12.07;;;16.00;99.90;;;;;;4974526;28;20203;-76
2022/08/30 01:28:09;;;;;;;12.27;11.27;;;16.00;99.90;;;;;;4974366;28;20248;-77
2022/08/30 01:30:38;;;;;;;13.43;12.33;;;16.00;99.90;;;;;;4968196;28;20226;-76
2022/08/30 01:33:06;;;;;;;12.70;11.60;;;16.00;99.90;;;;;;4973789;28;20219;-77
2022/08/30 01:35:37;;;;;;;13.43;12.07;;;15.90;99.90;;;;;;4974039;28;20200;-76
2022/08/30 01:38:05;;;;;;;13.40;12.23;;;15.90;99.90;;;;;;4974256;28;20287;-77
2022/08/30 01:40:32;;;;;;;13.13;11.97;;;15.90;99.90;;;;;;4968954;28;20304;-77
2022/08/30 01:42:59;;;;;;;13.93;12.57;;;15.80;99.90;;;;;;4974288;28;20259;-77
2022/08/30 01:45:26;;;;;;;13.53;12.33;;;15.80;99.90;;;;;;4974063;28;20256;-77
2022/08/30 01:47:52;;;;;;;13.00;11.70;;;15.80;99.90;;;;;;4972844;28;20280;-77
2022/08/30 01:50:19;;;;;;;14.23;12.90;;;15.80;99.90;;;;;;4973975;28;20220;-77
2022/08/30 01:52:46;;;;;;;13.47;12.27;;;15.80;99.90;;;;;;4974151;28;20209;-78
2022/08/30 01:55:14;;;;;;;13.87;12.67;;;15.80;99.90;;;;;;4972839;28;20205;-76
2022/08/30 01:57:41;;;;;;;13.37;12.13;;;15.80;99.90;;;;;;4967033;28;20740;-76
2022/08/30 02:00:09;;;;;;;14.07;12.77;;;15.80;99.90;;;;;;4974266;28;20260;-77
2022/08/30 02:02:39;;;;;;;13.47;12.37;;;15.80;99.90;;;;;;4965371;28;20255;-77
2022/08/30 02:05:07;;;;;;;14.23;13.03;;;15.70;99.90;;;;;;4973247;28;20199;-77
2022/08/30 02:07:34;;;;;;;13.70;12.60;;;15.70;99.90;;;;;;4973943;28;20548;-76
2022/08/30 02:10:01;;;;;;;13.33;12.23;;;15.70;99.90;;;;;;4972403;28;20224;-77
2022/08/30 02:12:30;;;;;;;13.67;12.47;;;15.60;99.90;;;;;;4973745;28;20254;-76
2022/08/30 02:14:57;;;;;;;14.10;12.90;;;15.60;99.90;;;;;;4972044;28;20215;-76
2022/08/30 02:17:23;;;;;;;14.50;13.20;;;15.60;99.90;;;;;;4973434;28;20205;-76
2022/08/30 02:19:50;;;;;;;14.03;12.60;;;15.50;99.90;;;;;;4973467;28;20283;-76
2022/08/30 02:22:17;;;;;;;13.63;12.50;;;15.50;99.90;;;;;;4970363;28;20205;-77
2022/08/30 02:24:44;;;;;;;13.67;12.53;;;15.40;99.90;;;;;;4972397;28;20569;-78
2022/08/30 02:27:11;;;;;;;14.57;13.37;;;15.50;99.90;;;;;;4971508;28;20244;-77
2022/08/30 02:29:39;;;;;;;13.43;12.43;;;15.40;99.90;;;;;;4973041;28;20280;-77
2022/08/30 02:32:06;;;;;;;13.33;12.23;;;15.50;99.90;;;;;;4968356;28;20201;-77
2022/08/30 02:34:32;;;;;;;13.83;12.73;;;15.40;99.90;;;;;;4973072;28;20248;-77
2022/08/30 02:36:59;;;;;;;14.47;13.23;;;15.40;99.90;;;;;;4973196;28;20550;-77
2022/08/30 02:39:26;;;;;;;13.80;12.70;;;15.40;99.90;;;;;;4973611;28;20572;-77
2022/08/30 02:41:53;;;;;;;14.83;13.43;;;15.40;99.90;;;;;;4973193;28;20684;-78
2022/08/30 02:44:20;;;;;;;14.77;13.57;;;15.40;99.90;;;;;;4972850;28;20190;-77
2022/08/30 02:46:48;;;;;;;14.20;13.00;;;15.50;99.90;;;;;;4973020;28;20212;-76
2022/08/30 02:49:15;;;;;;;14.43;13.23;;;15.40;99.90;;;;;;4971808;28;20202;-77
2022/08/30 02:51:42;;;;;;;14.43;13.23;;;15.40;99.90;;;;;;4971738;28;20208;-78
2022/08/30 02:54:09;;;;;;;14.43;13.17;;;15.30;99.90;;;;;;4972765;28;20217;-77
2022/08/30 02:56:36;;;;;;;14.50;13.30;;;15.30;99.90;;;;;;4971588;28;20637;-77
2022/08/30 02:59:03;;;;;;;14.33;13.17;;;15.30;99.90;;;;;;4971539;28;20203;-78
2022/08/30 03:01:34;;;;;;;14.83;13.63;;;15.30;99.90;;;;;;4972986;28;20193;-78
2022/08/30 03:04:02;;;;;;;15.23;14.03;;;15.30;99.90;;;;;;4972824;28;20206;-76
2022/08/30 03:06:29;;;;;;;14.23;12.97;;;15.30;99.90;;;;;;4967104;28;20282;-76
2022/08/30 03:08:56;;;;;;;14.80;13.60;;;15.20;99.90;;;;;;4971766;28;20612;-77
2022/08/30 03:11:23;;;;;;;14.90;13.60;;;15.20;99.90;;;;;;4972722;28;20201;-76
2022/08/30 03:13:50;;;;;;;15.07;13.87;;;15.20;99.90;;;;;;4964780;28;20251;-77
2022/08/30 03:16:16;;;;;;;16.30;14.93;;;15.20;99.90;;;;;;4967950;28;20204;-76
2022/08/30 03:18:43;;;;;;;16.13;14.83;;;15.20;99.90;;;;;;4969741;28;20615;-76
2022/08/30 03:21:13;;;;;;;15.03;13.73;;;15.20;99.90;;;;;;4964874;28;20213;-75
2022/08/30 03:23:40;;;;;;;16.13;14.83;;;15.20;99.90;;;;;;4967921;28;20330;-77
2022/08/30 03:26:07;;;;;;;15.00;13.80;;;15.10;99.90;;;;;;4968929;28;20205;-74
2022/08/30 03:28:34;;;;;;;16.43;15.03;;;15.10;99.90;;;;;;4972823;28;20691;-76
2022/08/30 03:31:01;;;;;;;14.97;13.63;;;15.10;99.90;;;;;;4971075;28;20276;-75
2022/08/30 03:33:28;;;;;;;15.80;14.40;;;15.00;99.90;;;;;;4971626;28;20278;-75
2022/08/30 03:35:55;;;;;;;15.83;14.43;;;15.10;99.90;;;;;;4974356;28;20201;-76
2022/08/30 03:38:24;;;;;;;16.07;14.87;;;15.10;99.90;;;;;;4977115;28;20200;-78
2022/08/30 03:40:50;;;;;;;16.33;14.97;;;15.10;99.90;;;;;;4975462;28;20609;-76
2022/08/30 03:43:17;;;;;;;16.00;14.70;;;15.00;99.90;;;;;;4975964;28;20738;-76
2022/08/30 03:45:44;;;;;;;16.77;15.37;;;15.00;99.90;;;;;;4976658;28;20258;-79
2022/08/30 03:48:11;;;;;;;15.47;14.27;;;15.00;99.90;;;;;;4976334;28;20193;-77
2022/08/30 03:50:39;;;;;;;16.13;14.63;;;15.00;99.90;;;;;;4970391;28;20230;-76
2022/08/30 03:53:06;;;;;;;16.53;15.03;;;14.90;99.90;;;;;;4960891;28;20639;-76
2022/08/30 03:55:34;;;;;;;16.17;14.87;;;14.90;99.90;;;;;;4974738;28;20264;-76
2022/08/30 03:58:01;;;;;;;16.40;15.00;;;14.90;99.90;;;;;;4960401;28;20197;-75
2022/08/30 04:00:28;;;;;;;17.03;15.57;;;14.90;99.90;;;;;;4958048;28;20294;-76
2022/08/30 04:02:54;;;;;;;18.53;16.73;;;14.90;99.90;;;;;;4959549;28;20283;-77
2022/08/30 04:05:21;;;;;;;16.67;15.37;;;14.80;99.90;;;;;;4962175;28;20247;-75
2022/08/30 04:07:48;;;;;;;16.90;15.60;;;14.80;99.90;;;;;;4973317;28;20263;-78
2022/08/30 04:10:15;;;;;;;16.63;15.23;;;14.80;99.90;;;;;;4975640;28;20283;-76
2022/08/30 04:12:43;;;;;;;16.67;15.23;;;14.90;99.90;;;;;;4975507;28;20204;-76
2022/08/30 04:15:11;;;;;;;15.57;14.37;;;14.80;99.90;;;;;;4974185;28;20220;-76
2022/08/30 04:17:38;;;;;;;17.73;16.23;;;14.80;99.90;;;;;;4975367;28;20260;-76
2022/08/30 04:20:06;;;;;;;15.67;14.47;;;14.80;99.90;;;;;;4973962;28;20255;-78
2022/08/30 04:22:33;;;;;;;16.30;15.00;;;14.80;99.90;;;;;;4967926;28;20553;-77
2022/08/30 04:25:00;;;;;;;16.67;15.20;;;14.80;99.90;;;;;;4971880;28;20260;-77
2022/08/30 04:27:26;;;;;;;16.40;14.97;;;14.80;99.90;;;;;;4972134;28;20709;-77
2022/08/30 04:29:55;;;;;;;16.73;15.07;;;14.80;99.90;;;;;;4973493;28;20217;-78
2022/08/30 04:32:22;;;;;;;16.47;15.07;;;14.80;99.90;;;;;;4972591;28;20261;-77
2022/08/30 04:34:49;;;;;;;16.60;15.30;;;14.70;99.90;;;;;;4972921;28;20218;-77
2022/08/30 04:37:16;;;;;;;17.17;15.57;;;14.70;99.90;;;;;;4974744;28;20261;-76
2022/08/30 04:39:43;;;;;;;16.90;15.50;;;14.80;99.90;;;;;;4970475;28;20229;-78
2022/08/30 04:42:10;;;;;;;17.13;15.73;;;14.70;99.90;;;;;;4970868;28;20331;-76
2022/08/30 04:44:37;;;;;;;17.10;15.67;;;14.70;99.90;;;;;;4973350;28;20295;-76
2022/08/30 04:47:06;;;;;;;16.63;15.23;;;14.80;99.90;;;;;;4972768;28;20200;-77
2022/08/30 04:49:33;;;;;;;17.90;16.40;;;14.70;99.90;;;;;;4974758;28;20219;-75
2022/08/30 04:51:59;;;;;;;17.70;16.23;;;14.80;99.90;;;;;;4974939;28;20264;-76
2022/08/30 04:54:26;;;;;;;17.37;15.87;;;14.80;99.90;;;;;;4973182;28;20218;-77
2022/08/30 04:56:53;;;;;;;18.10;16.67;;;14.80;99.90;;;;;;4974296;28;20208;-76
2022/08/30 04:59:20;;;;;;;17.30;15.90;;;14.80;99.90;;;;;;4964142;28;20227;-77
2022/08/30 05:01:47;;;;;;;18.90;17.30;;;14.90;99.90;;;;;;4974874;28;20205;-77
2022/08/30 05:04:16;;;;;;;18.33;16.73;;;14.90;99.90;;;;;;4974444;28;20226;-77
2022/08/30 05:06:43;;;;;;;17.13;15.83;;;14.90;99.90;;;;;;4974902;28;20231;-75
2022/08/30 05:09:09;;;;;;;18.27;16.57;;;15.00;99.90;;;;;;4975668;28;20208;-78
2022/08/30 05:11:37;;;;;;;18.27;16.57;;;15.00;99.90;;;;;;4971745;28;20265;-77
2022/08/30 05:14:04;;;;;;;17.77;16.17;;;15.00;99.90;;;;;;4967614;28;20680;-77
2022/08/30 05:16:31;;;;;;;17.67;16.17;;;15.00;99.90;;;;;;4973154;28;20255;-76
2022/08/30 05:18:58;;;;;;;17.60;16.17;;;15.00;99.90;;;;;;4974903;28;20198;-77
2022/08/30 05:21:27;;;;;;;17.60;16.10;;;15.10;99.90;;;;;;4975077;28;20204;-77
2022/08/30 05:23:55;;;;;;;17.50;16.10;;;15.20;99.90;;;;;;4974619;28;20248;-77
2022/08/30 05:26:24;;;;;;;18.53;16.93;;;15.30;99.90;;;;;;4969712;28;20208;-79
2022/08/30 05:28:51;;;;;;;17.77;16.37;;;15.30;99.90;;;;;;4973783;28;20677;-76
2022/08/30 05:31:20;;;;;;;17.13;15.73;;;15.40;99.90;;;;;;4972972;28;20217;-77
2022/08/30 05:33:48;;;;;;;16.57;15.37;;;15.60;99.90;;;;;;4974066;28;20282;-76
2022/08/30 05:36:17;;;;;;;16.43;15.23;;;15.70;99.90;;;;;;4974418;28;20258;-76
2022/08/30 05:38:45;;;;;;;17.93;16.43;;;15.90;99.90;;;;;;4973389;28;20570;-77
2022/08/30 05:41:13;;;;;;;17.83;16.33;;;15.90;99.90;;;;;;4972696;28;20228;-78
2022/08/30 05:43:40;;;;;;;17.23;15.93;;;15.90;99.90;;;;;;4973916;28;20201;-77
2022/08/30 05:46:10;;;;;;;17.30;15.90;;;16.00;99.90;;;;;;4974489;28;20392;-77
2022/08/30 05:48:38;;;;;;;16.93;15.60;;;16.10;99.90;;;;;;4970939;28;20613;-75
2022/08/30 05:51:08;;;;;;;17.73;16.23;;;16.30;99.90;;;;;;4970107;28;20290;-76
2022/08/30 05:53:35;;;;;;;17.70;16.23;;;16.30;99.90;;;;;;4973967;28;20337;-76
2022/08/30 05:56:06;;;;;;;17.63;16.23;;;16.40;99.90;;;;;;4972860;28;20206;-76
2022/08/30 05:58:33;;;;;;;16.93;15.63;;;16.50;99.90;;;;;;4968694;28;20720;-76
2022/08/30 06:01:00;;;;;;;15.93;14.70;;;16.60;99.90;;;;;;4968652;28;20711;-77
2022/08/30 06:03:28;;;;;;;17.07;15.73;;;16.70;99.90;;;;;;4973808;28;20252;-77
2022/08/30 06:05:55;;;;;;;16.33;15.03;;;16.80;99.90;;;;;;4973933;28;20314;-76
2022/08/30 06:08:22;;;;;;;16.93;15.43;;;16.90;99.90;;;;;;4972399;28;20225;-77
2022/08/30 06:10:49;;;;;;;17.30;15.90;;;17.00;99.90;;;;;;4973915;28;20300;-77
2022/08/30 06:13:17;;;;;;;16.50;15.30;;;17.20;99.90;;;;;;4974359;28;20261;-75
2022/08/30 06:15:44;;;;;;;17.07;15.80;;;17.30;99.90;;;;;;4974931;28;20225;-78
2022/08/30 06:18:11;;;;;;;17.60;16.30;;;17.40;99.90;;;;;;4974691;28;20204;-76
2022/08/30 06:20:42;;;;;;;13.13;10.37;;;17.60;99.90;;;;;;4973289;28;20229;-75
2022/08/30 06:23:09;;;;;;;11.43;10.23;;;17.70;99.90;;;;;;4976672;28;20220;-75
2022/08/30 06:25:36;;;;;;;17.07;15.67;;;17.80;99.90;;;;;;4973235;28;20202;-76
2022/08/30 06:28:04;;;;;;;11.47;10.37;;;17.90;99.90;;;;;;4973530;28;20204;-76
2022/08/30 06:30:32;;;;;;;11.60;10.40;;;18.00;99.90;;;;;;4972078;28;20714;-77
2022/08/30 06:32:59;;;;;;;12.20;11.00;;;18.20;99.90;;;;;;4973811;28;20198;-76
2022/08/30 06:35:27;;;;;;;13.53;12.33;;;18.30;99.90;;;;;;4973035;28;20249;-81
2022/08/30 06:37:54;;;;;;;10.10;9.10;;;18.40;99.90;;;;;;4974738;28;20207;-76
2022/08/30 06:40:21;;;;;;;11.90;9.50;;;18.50;99.90;;;;;;4972229;28;20222;-77
2022/08/30 06:42:49;;;;;;;9.77;8.57;;;18.50;99.90;;;;;;4972303;28;20212;-76
2022/08/30 06:45:16;;;;;;;13.83;12.73;;;18.60;99.90;;;;;;4970766;28;20226;-76
2022/08/30 06:47:44;;;;;;;14.60;13.50;;;18.70;99.90;;;;;;4966198;28;20203;-76
2022/08/30 06:50:12;;;;;;;11.00;9.57;;;18.70;99.90;;;;;;4965353;28;20220;-77
2022/08/30 06:52:40;;;;;;;10.83;9.83;;;18.80;99.90;;;;;;4972990;28;20736;-76
2022/08/30 06:55:08;;;;;;;13.90;12.60;;;18.90;99.90;;;;;;4972567;28;20224;-76
2022/08/30 06:57:35;;;;;;;14.70;13.50;;;18.90;99.90;;;;;;4967027;28;20208;-76
2022/08/30 07:00:02;;;;;;;15.27;14.13;;;19.00;99.90;;;;;;4972011;28;20220;-76
2022/08/30 07:02:29;;;;;;;14.53;13.43;;;19.10;99.90;;;;;;4972835;28;20712;-76
2022/08/30 07:04:57;;;;;;;15.50;14.30;;;19.20;99.90;;;;;;4971389;28;20279;-76
2022/08/30 07:07:23;;;;;;;15.70;14.43;;;19.20;99.90;;;;;;4972981;28;20240;-77
2022/08/30 07:09:50;;;;;;;16.83;15.43;;;19.30;99.90;;;;;;4972337;28;20645;-76
2022/08/30 07:12:17;;;;;;;10.30;9.30;;;19.30;99.90;;;;;;4972817;28;20268;-77
2022/08/30 07:14:44;;;;;;;16.13;14.93;;;19.50;99.90;;;;;;4966525;28;20319;-76
2022/08/30 07:19:51;;;;;;;15.67;14.00;;;19.90;99.90;;;;;;4970521;28;20221;-76
2022/08/30 07:22:20;;;;;;;14.90;13.73;;;20.30;99.90;;;;;;4964971;28;20226;-77
2022/08/30 07:24:50;;;;;;;15.63;14.33;;;20.80;99.90;;;;;;4963292;28;20206;-77
2022/08/30 07:27:17;;;;;;;17.40;15.77;;;21.30;99.90;;;;;;4972692;28;20198;-76
2022/08/30 07:29:44;;;;;;;16.00;14.70;;;21.80;99.90;;;;;;4972600;28;20669;-77
2022/08/30 07:32:11;;;;;;;16.30;14.93;;;22.30;99.90;;;;;;4963594;28;20212;-77
2022/08/30 07:34:37;;;;;;;14.53;13.23;;;22.50;99.90;;;;;;4972292;28;20222;-77
2022/08/30 07:37:04;;;;;;;16.27;14.87;;;22.90;99.90;;;;;;4972586;28;20734;-76
2022/08/30 07:39:32;;;;;;;16.20;12.77;;;23.50;99.90;;;;;;4972456;28;20213;-78
2022/08/30 07:41:59;;;;;;;12.83;11.73;;;24.00;99.90;;;;;;4971169;28;20201;-75
2022/08/30 07:44:26;;;;;;;11.80;10.70;;;24.30;99.90;;;;;;4972226;28;20198;-76
2022/08/30 07:46:53;;;;;;;15.13;13.73;;;24.30;99.90;;;;;;4972883;28;20202;-76
2022/08/30 07:49:19;;;;;;;13.10;8.27;;;24.50;99.90;;;;;;4972258;28;20244;-77
2022/08/30 07:51:46;;;;;;;11.70;8.77;;;24.60;99.90;;;;;;4971052;28;20689;-77
2022/08/30 07:54:13;;;;;;;14.97;13.67;;;24.60;99.90;;;;;;4967704;28;20633;-76
2022/08/30 07:56:41;;;;;;;9.67;8.70;;;24.60;99.90;;;;;;4968573;28;20202;-76
2022/08/30 07:59:08;;;;;;;13.37;11.50;;;24.70;99.90;;;;;;4971881;28;20206;-76
2022/08/30 08:01:35;;;;;;;11.60;10.50;;;24.70;99.90;;;;;;4972281;28;20209;-76
2022/08/30 08:04:02;;;;;;;13.60;12.40;;;24.60;99.90;;;;;;4970831;28;20682;-76
2022/08/30 08:06:29;;;;;;;11.50;10.50;;;24.80;99.90;;;;;;4972353;28;20194;-76
2022/08/30 08:09:00;;;;;;;10.60;9.40;;;25.00;99.90;;;;;;4972308;28;20273;-77
2022/08/30 08:11:28;;;;;;;11.57;10.47;;;25.30;99.90;;;;;;4972349;28;20190;-75
2022/08/30 08:13:56;;;;;;;10.67;9.73;;;25.10;99.90;;;;;;4971840;28;20194;-77
2022/08/30 08:16:25;;;;;;;13.80;12.70;;;24.90;99.90;;;;;;4972252;28;20218;-76
2022/08/30 08:18:53;;;;;;;13.33;12.13;;;24.40;99.90;;;;;;4972339;28;20671;-75
2022/08/30 08:21:20;;;;;;;9.80;8.80;;;24.30;99.90;;;;;;4972307;28;20225;-76
2022/08/30 08:23:47;;;;;;;12.10;11.00;;;24.60;99.90;;;;;;4975312;28;20245;-76
2022/08/30 08:26:14;;;;;;;11.63;10.63;;;24.50;99.90;;;;;;4974337;28;20285;-76
2022/08/30 08:28:41;;;;;;;11.50;10.40;;;24.90;99.90;;;;;;4975470;28;20229;-76
2022/08/30 08:31:16;;;;;;;11.77;10.83;;;25.30;99.90;;;;;;4975351;28;20225;-77
2022/08/30 08:33:42;;;;;;;11.03;10.03;;;25.50;99.90;;;;;;4975371;28;20189;-75
2022/08/30 08:36:09;;;;;;;10.80;9.90;;;25.80;99.90;;;;;;4982389;28;20292;-76
2022/08/30 08:38:36;;;;;;;10.73;9.67;;;26.00;99.90;;;;;;4974314;28;20675;-76
2022/08/30 08:41:10;;;;;;;10.13;9.13;;;26.20;99.90;;;;;;4975209;28;20719;-75
2022/08/30 08:43:37;;;;;;;9.43;8.53;;;26.30;99.90;;;;;;4973900;28;20566;-77
2022/08/30 08:46:10;;;;;;;9.83;8.83;;;26.30;99.90;;;;;;4975320;28;20265;-75
2022/08/30 08:48:45;;;;;;;11.97;11.03;;;26.40;99.90;;;;;;4975389;28;20671;-76
2022/08/30 08:54:04;;;;;;;12.30;10.93;;;26.90;99.90;;;;;;4973587;28;20296;-76
2022/08/30 08:56:32;;;;;;;12.00;11.03;;;27.00;99.90;;;;;;4975145;28;20228;-76
2022/08/30 08:58:59;;;;;;;10.40;9.60;;;27.30;99.90;;;;;;4973170;28;20627;-75
2022/08/30 09:01:28;;;;;;;11.20;10.30;;;27.50;99.90;;;;;;4974850;28;20202;-76
2022/08/30 09:03:59;;;;;;;10.50;9.67;;;27.50;99.90;;;;;;4973563;28;20201;-76
2022/08/30 09:06:43;;;;;;;10.10;9.27;;;27.90;99.90;;;;;;4974965;28;20249;-76
2022/08/30 09:09:11;;;;;;;9.13;8.43;;;28.20;99.90;;;;;;4967455;28;20268;-76
2022/08/30 09:11:40;;;;;;;12.60;11.50;;;28.20;99.90;;;;;;4974747;28;20567;-77
2022/08/30 09:14:12;;;;;;;11.07;10.13;;;28.00;99.90;;;;;;4974183;28;20632;-76
2022/08/30 09:16:47;;;;;;;10.87;9.97;;;27.90;99.90;;;;;;4973519;28;20320;-76
2022/08/30 09:19:33;;;;;;;10.97;9.97;;;27.90;99.90;;;;;;4982292;28;20202;-76
2022/08/30 09:22:02;;;;;;;10.87;9.93;;;27.80;99.90;;;;;;4974705;28;20248;-77
2022/08/30 09:24:37;;;;;;;12.27;11.10;;;28.00;99.90;;;;;;4968974;28;20633;-76
2022/08/30 09:27:16;;;;;;;11.50;10.60;;;28.00;99.90;;;;;;4974550;28;20201;-75
2022/08/30 09:29:51;;;;;;;11.87;10.87;;;28.10;99.90;;;;;;4973129;28;20316;-77
2022/08/30 09:32:28;;;;;;;11.63;10.63;;;28.10;99.90;;;;;;4958382;28;20663;-75
2022/08/30 09:34:56;;;;;;;11.57;10.67;;;28.10;99.90;;;;;;4969053;28;20727;-76
2022/08/30 09:37:31;;;;;;;11.60;10.67;;;28.10;99.90;;;;;;4974292;28;20201;-77
2022/08/30 09:39:59;;;;;;;11.80;10.80;;;28.50;99.90;;;;;;4967706;28;20222;-77
2022/08/30 09:42:28;;;;;;;12.17;11.17;;;28.30;99.90;;;;;;4969090;28;20207;-76
2022/08/30 09:45:09;;;;;;;12.60;11.40;;;28.30;99.90;;;;;;4972205;28;20198;-77
2022/08/30 09:47:37;;;;;;;11.33;10.43;;;28.50;99.90;;;;;;4974362;28;20248;-75
2022/08/30 09:50:09;;;;;;;12.87;11.40;;;28.80;99.90;;;;;;4973966;28;20796;-76
2022/08/30 09:52:51;;;;;;;11.30;10.33;;;28.80;99.90;;;;;;4974082;28;20690;-76
2022/08/30 09:55:30;;;;;;;11.30;10.50;;;29.00;99.90;;;;;;4981942;28;20222;-76
2022/08/30 09:58:06;;;;;;;12.13;10.93;;;29.20;99.90;;;;;;4967157;28;20663;-77
2022/08/30 10:00:38;;;;;;;12.70;11.80;;;28.90;99.90;;;;;;4973883;28;20221;-77
2022/08/30 10:03:25;;;;;;;13.07;11.87;;;29.00;99.90;;;;;;4973906;28;20253;-76
2022/08/30 10:06:00;;;;;;;9.80;9.07;;;28.70;99.90;;;;;;4973824;28;20611;-76
2022/08/30 10:08:38;;;;;;;10.37;9.47;;;28.30;99.90;;;;;;4973932;28;20201;-76
2022/08/30 10:11:08;;;;;;;11.17;10.37;;;28.40;99.90;;;;;;4973773;28;20272;-77
2022/08/30 10:14:10;;;;;;;8.20;7.47;;;28.70;99.90;;;;;;4968284;28;20210;-77
2022/08/30 10:16:48;;;;;;;12.13;11.20;;;28.80;99.90;;;;;;4966991;28;20268;-77
2022/08/30 10:19:31;;;;;;;11.63;10.73;;;28.40;99.90;;;;;;4966347;28;20261;-77
2022/08/30 10:22:05;;;;;;;11.27;10.40;;;28.20;99.90;;;;;;4973699;28;20252;-76
2022/08/30 10:24:37;;;;;;;11.23;10.27;;;28.30;99.90;;;;;;4966043;28;20213;-77
2022/08/30 10:27:09;;;;;;;10.70;9.90;;;28.40;99.90;;;;;;4972774;28;20734;-77
2022/08/30 10:29:42;;;;;;;9.63;8.83;;;28.60;99.90;;;;;;4973357;28;20226;-77
2022/08/30 10:32:16;;;;;;;8.23;7.43;;;28.60;99.90;;;;;;4965526;28;20201;-77
2022/08/30 10:34:49;;;;;;;6.73;5.80;;;28.40;99.90;;;;;;4969697;28;20197;-76
2022/08/30 10:37:21;;;;;;;5.60;5.07;;;28.10;99.90;;;;;;4970294;28;20195;-78
2022/08/30 10:39:52;;;;;;;6.07;5.40;;;28.30;99.90;;;;;;4973053;28;20795;-78
2022/08/30 10:42:21;;;;;;;6.67;5.53;;;28.30;99.90;;;;;;4971928;28;20206;-78
2022/08/30 10:44:52;;;;;;;6.57;5.70;;;28.30;99.90;;;;;;4972366;28;20641;-76
2022/08/30 10:47:28;;;;;;;6.23;4.87;;;28.20;99.90;;;;;;4966402;28;20194;-76
2022/08/30 10:50:04;;;;;;;8.20;7.50;;;28.10;99.90;;;;;;4972923;28;20217;-78
2022/08/30 10:52:38;;;;;;;8.93;8.03;;;28.00;99.90;;;;;;4973006;28;20689;-76
2022/08/30 10:55:09;;;;;;;5.67;5.17;;;28.00;99.90;;;;;;4971374;28;20632;-77
2022/08/30 10:57:37;;;;;;;7.80;7.10;;;28.10;99.90;;;;;;4971256;28;20201;-77
2022/08/30 11:00:07;;;;;;;5.93;5.37;;;28.00;99.90;;;;;;4965794;28;20254;-76
2022/08/30 11:03:08;;;;;;;5.43;4.93;;;28.10;99.90;;;;;;4973035;28;20216;-76
2022/08/30 11:05:48;;;;;;;6.20;5.60;;;28.10;99.90;;;;;;4946172;28;20206;-77
2022/08/30 11:08:32;;;;;;;6.33;5.50;;;28.10;99.90;;;;;;4965861;28;20205;-75
2022/08/30 11:11:06;;;;;;;6.37;5.80;;;28.00;99.90;;;;;;4973054;28;20218;-77
2022/08/30 11:13:38;;;;;;;10.17;9.37;;;28.00;99.90;;;;;;4967268;28;20636;-76
2022/08/30 11:16:07;;;;;;;10.60;9.83;;;27.90;99.90;;;;;;4972352;28;20628;-77
2022/08/30 11:18:44;;;;;;;11.30;10.50;;;27.90;99.90;;;;;;4972844;28;20224;-76
2022/08/30 11:21:21;;;;;;;11.00;10.10;;;27.80;99.90;;;;;;4979912;28;20276;-76
2022/08/30 11:24:06;;;;;;;10.37;9.60;;;27.80;99.90;;;;;;4963368;28;20241;-76
2022/08/30 11:26:55;;;;;;;9.07;8.27;;;27.60;99.90;;;;;;4972502;28;20185;-76
2022/08/30 11:29:33;;;;;;;6.07;5.47;;;27.40;99.90;;;;;;4969656;28;20272;-76
2022/08/30 11:32:19;;;;;;;5.30;4.80;;;27.50;99.90;;;;;;4972630;28;20614;-76
2022/08/30 11:35:00;;;;;;;10.73;10.03;;;27.50;99.90;;;;;;4972231;28;20202;-77
2022/08/30 11:37:39;;;;;;;9.70;8.90;;;27.60;99.90;;;;;;4970920;28;20442;-75
2022/08/30 11:40:47;;;;;;;10.50;9.80;;;27.60;99.90;;;;;;4973607;28;20217;-81
2022/08/30 11:43:54;;;;;;;10.60;9.80;;;27.50;99.90;;;;;;4973742;28;20197;-79
2022/08/30 11:46:36;;;;;;;5.90;4.90;;;27.50;99.90;;;;;;4980499;28;20236;-77
2022/08/30 11:49:31;;;;;;;4.50;4.10;;;27.60;99.90;;;;;;4975021;28;20198;-77
2022/08/30 11:52:19;;;;;;;6.23;5.17;;;27.70;99.90;;;;;;4974406;28;20276;-77
2022/08/30 11:55:02;;;;;;;5.40;4.90;;;27.80;99.90;;;;;;4976179;28;20220;-77
2022/08/30 11:57:41;;;;;;;5.23;4.77;;;27.90;99.90;;;;;;4978508;28;20276;-78
2022/08/30 12:00:11;;;;;;;5.37;4.43;;;28.00;99.90;;;;;;4978773;28;20213;-78
2022/08/30 12:02:54;;;;;;;6.00;5.50;;;28.10;99.90;;;;;;4979584;28;20256;-77
2022/08/30 12:05:54;;;;;;;5.70;5.20;;;28.20;99.90;;;;;;4977281;28;20198;-77
2022/08/30 12:08:54;;;;;;;6.67;6.17;;;28.30;99.90;;;;;;4971620;28;20198;-77
2022/08/30 12:12:01;;;;;;;6.20;5.60;;;28.40;99.90;;;;;;4901385;29;20277;-77
2022/08/30 12:14:39;;;;;;;7.30;6.70;;;28.50;99.90;;;;;;4899129;29;20214;-77
2022/08/30 12:20:00;;;;;;;5.27;4.77;;;28.40;99.90;;;;;;4975196;28;20230;-79
2022/08/30 12:22:29;;;;;;;8.87;8.17;;;28.40;99.90;;;;;;4983612;28;20190;-80
2022/08/30 12:24:56;;;;;;;7.90;7.20;;;28.30;99.90;;;;;;4974529;28;20277;-80
2022/08/30 12:27:26;;;;;;;8.50;7.60;;;28.40;99.90;;;;;;4982522;28;20216;-80
2022/08/30 12:29:58;;;;;;;7.60;6.90;;;28.30;99.90;;;;;;4982464;28;20633;-79
2022/08/30 12:32:25;;;;;;;9.40;8.60;;;28.30;99.90;;;;;;4981437;28;20218;-78
2022/08/30 12:34:55;;;;;;;9.70;9.00;;;28.40;99.90;;;;;;4981594;28;20194;-79
2022/08/30 12:37:24;;;;;;;8.53;7.93;;;28.60;99.90;;;;;;4976303;28;20226;-79
2022/08/30 12:40:02;;;;;;;6.00;5.50;;;28.90;99.90;;;;;;4968177;28;20242;-79
2022/08/30 12:42:31;;;;;;;6.30;5.70;;;29.20;99.90;;;;;;4967626;28;20194;-78
2022/08/30 12:45:02;;;;;;;6.43;5.93;;;29.20;99.90;;;;;;4973729;28;20692;-78
2022/08/30 12:47:35;;;;;;;4.70;4.30;;;29.20;99.90;;;;;;4968421;28;20191;-78
2022/08/30 12:50:03;;;;;;;6.30;5.80;;;29.30;99.90;;;;;;4996071;28;20225;-78
2022/08/30 12:52:34;;;;;;;6.27;5.77;;;29.40;99.90;;;;;;4982001;28;20202;-77
2022/08/30 12:55:13;;;;;;;7.10;5.43;;;29.10;98.80;;;;;;4982577;28;20205;-77